Time;durP1;ratioP1;P1;durP2;ratioP2;P2;SDS_P1;SDS_P2;PMS_P1;PMS_P2;Temp;Humidity;BMP_temperature;BMP_pressure;BME280_temperature;BME280_humidity;BME280_pressure;Samples;Min_cycle;Max_cycle;Signal;HPM_P1;HPM_P2
2022/12/12 00:01:32;;;;;;;4.60;2.57;;;;;;;;;;5117117;28;20111;-74
2022/12/12 00:03:58;;;;;;;5.07;2.70;;;;;;;;;;5115148;28;20027;-76
2022/12/12 00:06:25;;;;;;;3.53;2.07;;;;;;;;;;5115093;28;20015;-74
2022/12/12 00:08:51;;;;;;;4.60;2.30;;;;;;;;;;5118144;28;20024;-74
2022/12/12 00:11:17;;;;;;;3.47;2.10;;;;;;;;;;5117271;27;20023;-72
2022/12/12 00:13:43;;;;;;;3.47;2.30;;;;;;;;;;5117278;28;20023;-72
2022/12/12 00:16:09;;;;;;;4.50;2.00;;;;;;;;;;5115488;28;20024;-74
2022/12/12 00:18:38;;;;;;;3.00;2.23;;;;;;;;;;5115653;28;20035;-72
2022/12/12 00:21:05;;;;;;;5.33;2.67;;;;;;;;;;5116419;28;20095;-73
2022/12/12 00:23:30;;;;;;;4.83;2.40;;;;;;;;;;5116207;28;20536;-75
2022/12/12 00:26:00;;;;;;;3.43;1.33;;;;;;;;;;5114233;28;20024;-74
2022/12/12 00:28:26;;;;;;;3.20;2.10;;;;;;;;;;5115850;28;20046;-75
2022/12/12 00:30:52;;;;;;;3.60;2.27;;;;;;;;;;5117896;28;20463;-74
2022/12/12 00:33:17;;;;;;;3.83;2.30;;;;;;;;;;5115604;28;20106;-76
2022/12/12 00:35:43;;;;;;;4.37;2.20;;;;;;;;;;5118049;28;20068;-75
2022/12/12 00:38:09;;;;;;;5.37;2.37;;;;;;;;;;5117845;28;20054;-74
2022/12/12 00:40:35;;;;;;;3.70;2.50;;;;;;;;;;5119763;28;20028;-74
2022/12/12 00:43:00;;;;;;;3.73;2.73;;;;;;;;;;5120651;28;20025;-76
2022/12/12 00:45:27;;;;;;;3.77;1.87;;;;;;;;;;5121303;28;20023;-76
2022/12/12 00:47:52;;;;;;;4.53;2.63;;;;;;;;;;5120144;28;20022;-76
2022/12/12 00:50:17;;;;;;;4.60;2.90;;;;;;;;;;5119882;28;20497;-75
2022/12/12 00:52:44;;;;;;;3.30;2.23;;;;;;;;;;5119608;28;20119;-73
2022/12/12 00:55:10;;;;;;;3.73;1.80;;;;;;;;;;5121201;28;20020;-78
2022/12/12 00:57:36;;;;;;;4.07;2.10;;;;;;;;;;5119036;28;20049;-74
2022/12/12 01:00:02;;;;;;;3.83;2.30;;;;;;;;;;5116529;28;20035;-77
2022/12/12 01:02:28;;;;;;;3.27;1.80;;;;;;;;;;5114466;28;20030;-74
2022/12/12 01:04:53;;;;;;;6.17;2.47;;;;;;;;;;5114731;28;20464;-74
2022/12/12 01:07:18;;;;;;;2.93;2.03;;;;;;;;;;5114619;28;20016;-73
2022/12/12 01:09:45;;;;;;;3.43;2.13;;;;;;;;;;5117142;28;20015;-74
2022/12/12 01:12:13;;;;;;;3.60;2.30;;;;;;;;;;5116161;28;20020;-74
2022/12/12 01:14:39;;;;;;;3.13;1.73;;;;;;;;;;5113985;28;20156;-73
2022/12/12 01:17:04;;;;;;;5.13;2.13;;;;;;;;;;5113716;28;20046;-73
2022/12/12 01:19:30;;;;;;;2.43;1.93;;;;;;;;;;5113813;28;20480;-72
2022/12/12 01:21:55;;;;;;;3.93;2.00;;;;;;;;;;5113275;28;20065;-74
2022/12/12 01:24:20;;;;;;;5.27;2.83;;;;;;;;;;5114769;28;20376;-73
2022/12/12 01:26:46;;;;;;;4.57;2.23;;;;;;;;;;5113355;28;20115;-74
2022/12/12 01:29:11;;;;;;;4.47;2.63;;;;;;;;;;5114827;28;20148;-73
2022/12/12 01:31:37;;;;;;;5.43;2.53;;;;;;;;;;5113065;28;20048;-73
2022/12/12 01:34:03;;;;;;;5.77;2.97;;;;;;;;;;5113470;28;20012;-73
2022/12/12 01:36:28;;;;;;;4.13;2.53;;;;;;;;;;5113127;28;20108;-73
2022/12/12 01:38:55;;;;;;;4.47;2.43;;;;;;;;;;5114246;28;20488;-77
2022/12/12 01:41:21;;;;;;;4.67;2.57;;;;;;;;;;5112987;28;20674;-73
2022/12/12 01:43:47;;;;;;;4.13;2.37;;;;;;;;;;5114399;28;20116;-73
2022/12/12 01:46:33;;;;;;;3.77;2.17;;;;;;;;;;5113058;28;20475;-72
2022/12/12 01:49:01;;;;;;;4.37;1.57;;;;;;;;;;5113905;28;20098;-74
2022/12/12 01:51:27;;;;;;;3.70;1.93;;;;;;;;;;5112730;28;20047;-73
2022/12/12 01:53:56;;;;;;;3.53;1.97;;;;;;;;;;5112756;28;20024;-74
2022/12/12 01:56:23;;;;;;;5.33;2.30;;;;;;;;;;5112657;28;20016;-73
2022/12/12 01:58:50;;;;;;;4.03;1.97;;;;;;;;;;5112501;28;20042;-73
2022/12/12 02:01:15;;;;;;;2.70;1.63;;;;;;;;;;5114132;28;20069;-73
2022/12/12 02:03:42;;;;;;;3.00;2.03;;;;;;;;;;5112946;28;20028;-73
2022/12/12 02:06:11;;;;;;;4.33;2.30;;;;;;;;;;5114164;28;20020;-73
2022/12/12 02:08:37;;;;;;;2.93;2.03;;;;;;;;;;5114392;28;20099;-73
2022/12/12 02:11:02;;;;;;;2.80;1.43;;;;;;;;;;5114550;28;20017;-73
2022/12/12 02:13:29;;;;;;;3.10;1.80;;;;;;;;;;5114713;28;20023;-73
2022/12/12 02:16:01;;;;;;;4.77;2.20;;;;;;;;;;5112689;28;20011;-73
2022/12/12 02:18:26;;;;;;;2.73;2.10;;;;;;;;;;5113902;28;20027;-73
2022/12/12 02:21:02;;;;;;;4.13;2.90;;;;;;;;;;5113968;28;20482;-73
2022/12/12 02:23:30;;;;;;;3.60;2.77;;;;;;;;;;5114286;28;20024;-74
2022/12/12 02:25:55;;;;;;;3.50;2.30;;;;;;;;;;5115410;28;20118;-74
2022/12/12 02:28:39;;;;;;;3.30;2.10;;;;;;;;;;5118918;28;20092;-75
2022/12/12 02:31:23;;;;;;;6.60;3.30;;;;;;;;;;5118454;28;20047;-73
2022/12/12 02:33:51;;;;;;;3.47;2.57;;;;;;;;;;5114796;28;20024;-73
2022/12/12 02:36:26;;;;;;;7.13;3.57;;;;;;;;;;5112766;28;20064;-72
2022/12/12 02:38:53;;;;;;;3.90;2.70;;;;;;;;;;5112130;28;20023;-73
2022/12/12 02:41:28;;;;;;;4.73;2.80;;;;;;;;;;5114946;28;20024;-74
2022/12/12 02:43:58;;;;;;;4.00;2.72;;;;;;;;;;5118701;28;20482;-73
2022/12/12 02:46:24;;;;;;;5.93;2.93;;;;;;;;;;5116258;28;20030;-72
2022/12/12 02:48:55;;;;;;;5.10;2.37;;;;;;;;;;5113023;28;20028;-72
2022/12/12 02:51:21;;;;;;;3.97;2.57;;;;;;;;;;5113125;28;20032;-72
2022/12/12 02:53:47;;;;;;;5.13;2.90;;;;;;;;;;5113443;28;20022;-72
2022/12/12 02:56:39;;;;;;;5.73;2.83;;;;;;;;;;5114316;28;20102;-73
2022/12/12 02:59:04;;;;;;;6.40;3.33;;;;;;;;;;5096017;28;20568;-73
2022/12/12 03:01:49;;;;;;;4.50;2.87;;;;;;;;;;5112537;28;20032;-72
2022/12/12 03:07:46;;;;;;;5.10;2.83;;;;;;;;;;5113483;28;20524;-72
2022/12/12 03:10:18;;;;;;;4.50;2.20;;;;;;;;;;5101419;28;20464;-72
2022/12/12 03:12:53;;;;;;;3.77;2.20;;;;;;;;;;5113267;28;20548;-72
2022/12/12 03:15:24;;;;;;;5.65;2.80;;;;;;;;;;5112057;28;20024;-73
2022/12/12 03:18:10;;;;;;;4.03;2.50;;;;;;;;;;5113970;28;20561;-77
2022/12/12 03:20:36;;;;;;;;;;;;;;;;;;5118701;28;20034;-76
2022/12/12 03:23:12;;;;;;;3.93;2.50;;;;;;;;;;5121968;28;19904;-73
2022/12/12 03:25:59;;;;;;;5.47;3.07;;;;;;;;;;5116562;28;20027;-74
2022/12/12 03:28:33;;;;;;;5.23;3.07;;;;;;;;;;5116850;28;20019;-74
2022/12/12 03:31:02;;;;;;;3.45;2.05;;;;;;;;;;5117125;28;20083;-73
2022/12/12 03:33:30;;;;;;;4.17;2.73;;;;;;;;;;5117168;27;20031;-73
2022/12/12 03:35:59;;;;;;;5.50;3.10;;;;;;;;;;5115336;28;20055;-72
2022/12/12 03:38:31;;;;;;;4.30;1.87;;;;;;;;;;5115518;28;20031;-74
2022/12/12 03:41:00;;;;;;;5.00;2.23;;;;;;;;;;5116509;28;20023;-76
2022/12/12 03:43:27;;;;;;;5.67;2.43;;;;;;;;;;5115744;28;20016;-73
2022/12/12 03:45:52;;;;;;;7.47;3.20;;;;;;;;;;5116769;28;20026;-73
2022/12/12 03:48:23;;;;;;;4.17;2.57;;;;;;;;;;5115423;28;20019;-73
2022/12/12 03:50:52;;;;;;;5.60;2.73;;;;;;;;;;5115937;28;20055;-73
2022/12/12 03:53:44;;;;;;;5.93;2.57;;;;;;;;;;5115594;28;20034;-77
2022/12/12 03:56:48;;;;;;;6.40;3.03;;;;;;;;;;5113511;28;20036;-74
2022/12/12 03:59:18;;;;;;;5.73;3.00;;;;;;;;;;5078580;28;20036;-73
2022/12/12 04:01:49;;;;;;;5.23;3.30;;;;;;;;;;5096683;28;20464;-71
2022/12/12 04:04:21;;;;;;;7.57;3.20;;;;;;;;;;5109936;28;20471;-73
2022/12/12 04:07:09;;;;;;;4.60;2.20;;;;;;;;;;5120446;28;20076;-72
2022/12/12 04:15:18;;;;;;;4.67;2.60;;;;;;;;;;5117154;28;20482;-72
2022/12/12 04:17:49;;;;;;;8.37;3.20;;;;;;;;;;5119498;28;20499;-72
2022/12/12 04:23:14;;;;;;;5.10;2.93;;;;;;;;;;5117481;28;20066;-72
2022/12/12 04:28:35;;;;;;;;;;;;;;;;;;5116305;28;20141;-73
2022/12/12 04:31:02;;;;;;;7.00;3.63;;;;;;;;;;5113659;28;20305;-73
2022/12/12 04:33:30;;;;;;;5.47;3.57;;;;;;;;;;5115659;28;20020;-73
2022/12/12 04:35:57;;;;;;;4.20;2.10;;;;;;;;;;5116065;28;20016;-72
2022/12/12 04:38:24;;;;;;;5.43;3.17;;;;;;;;;;5115480;28;20028;-72
2022/12/12 04:40:54;;;;;;;5.70;2.80;;;;;;;;;;5115493;28;20031;-72
2022/12/12 04:43:24;;;;;;;7.40;3.67;;;;;;;;;;5114344;28;20030;-73
2022/12/12 04:45:53;;;;;;;4.97;2.87;;;;;;;;;;5115146;28;20024;-73
2022/12/12 04:48:23;;;;;;;5.90;3.90;;;;;;;;;;5116123;28;20022;-75
2022/12/12 04:50:51;;;;;;;5.53;2.87;;;;;;;;;;5115595;28;20092;-73
2022/12/12 04:53:19;;;;;;;6.20;3.23;;;;;;;;;;5114259;28;20030;-73
2022/12/12 04:55:51;;;;;;;4.43;2.60;;;;;;;;;;5113992;28;20474;-74
2022/12/12 04:58:17;;;;;;;6.77;2.73;;;;;;;;;;5115237;27;20059;-72
2022/12/12 05:00:46;;;;;;;4.77;2.30;;;;;;;;;;5113505;28;20104;-74
2022/12/12 05:03:27;;;;;;;7.47;3.57;;;;;;;;;;5114110;28;20064;-75
2022/12/12 05:05:58;;;;;;;6.43;3.57;;;;;;;;;;5115342;27;20032;-73
2022/12/12 05:08:29;;;;;;;6.30;3.10;;;;;;;;;;5115197;28;20060;-73
2022/12/12 05:10:56;;;;;;;5.50;3.37;;;;;;;;;;5113598;28;20019;-75
2022/12/12 05:13:23;;;;;;;5.50;3.23;;;;;;;;;;5113901;28;20011;-73
2022/12/12 05:15:51;;;;;;;6.37;1.93;;;;;;;;;;5113681;28;20016;-74
2022/12/12 05:18:19;;;;;;;7.00;4.03;;;;;;;;;;5113278;28;20012;-74
2022/12/12 05:20:44;;;;;;;6.23;3.10;;;;;;;;;;5113359;28;20047;-74
2022/12/12 05:23:09;;;;;;;6.77;3.70;;;;;;;;;;5113580;28;20019;-74
2022/12/12 05:25:36;;;;;;;7.07;3.20;;;;;;;;;;5113557;28;20015;-75
2022/12/12 05:28:01;;;;;;;7.10;3.43;;;;;;;;;;5113615;28;20460;-74
2022/12/12 05:30:27;;;;;;;5.47;3.33;;;;;;;;;;5114285;28;20047;-74
2022/12/12 05:32:53;;;;;;;6.93;3.20;;;;;;;;;;5113451;28;20047;-75
2022/12/12 05:35:18;;;;;;;6.93;3.50;;;;;;;;;;5114006;28;20177;-74
2022/12/12 05:37:43;;;;;;;6.57;3.23;;;;;;;;;;5114489;28;20015;-73
2022/12/12 05:40:10;;;;;;;5.50;3.27;;;;;;;;;;5115962;28;20114;-76
2022/12/12 05:42:36;;;;;;;7.73;3.80;;;;;;;;;;5114950;28;20060;-76
2022/12/12 05:45:01;;;;;;;4.53;3.33;;;;;;;;;;5115682;28;20114;-74
2022/12/12 05:47:28;;;;;;;7.03;3.03;;;;;;;;;;5114741;28;20464;-74
2022/12/12 05:49:53;;;;;;;5.43;2.53;;;;;;;;;;5114485;28;20103;-73
2022/12/12 05:52:18;;;;;;;4.60;2.77;;;;;;;;;;5113093;28;20051;-75
2022/12/12 05:54:44;;;;;;;7.10;4.23;;;;;;;;;;5113530;28;20517;-76
2022/12/12 05:57:09;;;;;;;6.00;3.10;;;;;;;;;;5114298;28;20057;-76
2022/12/12 05:59:35;;;;;;;6.97;3.53;;;;;;;;;;5115112;28;20027;-77
2022/12/12 06:02:00;;;;;;;6.33;3.80;;;;;;;;;;5117631;28;20024;-78
2022/12/12 06:04:26;;;;;;;6.63;3.63;;;;;;;;;;5115662;28;20026;-75
2022/12/12 06:06:52;;;;;;;5.73;2.50;;;;;;;;;;5112933;28;20043;-77
2022/12/12 06:09:18;;;;;;;4.40;2.93;;;;;;;;;;5112814;28;20019;-75
2022/12/12 06:11:43;;;;;;;6.50;4.00;;;;;;;;;;5115266;28;20026;-76
2022/12/12 06:14:08;;;;;;;5.67;3.60;;;;;;;;;;5114740;28;20022;-77
2022/12/12 06:16:34;;;;;;;6.87;3.60;;;;;;;;;;5113086;28;20073;-75
2022/12/12 06:18:59;;;;;;;5.07;2.97;;;;;;;;;;5112345;28;20054;-74
2022/12/12 06:21:25;;;;;;;6.67;2.80;;;;;;;;;;5112680;28;20062;-76
2022/12/12 06:23:51;;;;;;;8.30;3.93;;;;;;;;;;5114175;28;20020;-76
2022/12/12 06:26:18;;;;;;;7.57;4.40;;;;;;;;;;5112181;28;20106;-76
2022/12/12 06:28:44;;;;;;;7.03;3.37;;;;;;;;;;5113122;28;20052;-75
2022/12/12 06:31:10;;;;;;;9.27;4.60;;;;;;;;;;5114807;28;20047;-76
2022/12/12 06:33:37;;;;;;;9.23;5.03;;;;;;;;;;5114999;28;20050;-74
2022/12/12 06:36:07;;;;;;;7.93;4.60;;;;;;;;;;5114909;28;20371;-76
2022/12/12 06:38:32;;;;;;;8.03;4.10;;;;;;;;;;5113869;28;20047;-73
2022/12/12 06:40:58;;;;;;;8.77;4.10;;;;;;;;;;5114456;28;20023;-76
2022/12/12 06:43:25;;;;;;;8.80;4.50;;;;;;;;;;5111798;28;20027;-73
2022/12/12 06:45:50;;;;;;;9.33;4.80;;;;;;;;;;5113225;28;20095;-74
2022/12/12 06:48:15;;;;;;;8.43;4.33;;;;;;;;;;5115424;28;20015;-76
2022/12/12 06:50:45;;;;;;;6.80;3.57;;;;;;;;;;5115569;28;20016;-76
2022/12/12 06:53:10;;;;;;;8.70;4.47;;;;;;;;;;5115953;28;20139;-75
2022/12/12 06:55:42;;;;;;;7.80;4.13;;;;;;;;;;5119299;28;20027;-74
2022/12/12 06:58:08;;;;;;;9.33;3.97;;;;;;;;;;5117827;28;20115;-75
2022/12/12 07:00:33;;;;;;;7.10;3.93;;;;;;;;;;5117047;28;20044;-75
2022/12/12 07:02:59;;;;;;;9.37;4.53;;;;;;;;;;5117751;28;20088;-74
2022/12/12 07:05:24;;;;;;;8.07;4.10;;;;;;;;;;5118128;28;20415;-76
2022/12/12 07:07:50;;;;;;;9.83;5.63;;;;;;;;;;5117805;28;20569;-74
2022/12/12 07:10:15;;;;;;;8.33;4.87;;;;;;;;;;5116073;28;20388;-75
2022/12/12 07:12:41;;;;;;;11.40;4.90;;;;;;;;;;5116154;28;20023;-75
2022/12/12 07:15:06;;;;;;;9.33;4.63;;;;;;;;;;5115594;28;20015;-76
2022/12/12 07:17:32;;;;;;;8.23;5.10;;;;;;;;;;5117351;28;20096;-77
2022/12/12 07:19:58;;;;;;;7.00;4.60;;;;;;;;;;5115276;28;20059;-76
2022/12/12 07:22:24;;;;;;;9.87;5.80;;;;;;;;;;5116254;28;20080;-79
2022/12/12 07:24:49;;;;;;;10.10;5.63;;;;;;;;;;5118858;28;20406;-76
2022/12/12 07:27:15;;;;;;;7.10;4.33;;;;;;;;;;5115594;28;20460;-76
2022/12/12 07:29:40;;;;;;;6.97;4.30;;;;;;;;;;5116163;28;20024;-75
2022/12/12 07:32:06;;;;;;;7.07;4.27;;;;;;;;;;5114264;28;20148;-79
2022/12/12 07:34:31;;;;;;;5.37;2.93;;;;;;;;;;5114346;28;20011;-73
2022/12/12 07:36:58;;;;;;;4.77;2.60;;;;;;;;;;5114403;28;20024;-76
2022/12/12 07:39:23;;;;;;;9.87;5.07;;;;;;;;;;5115268;28;20460;-76
2022/12/12 07:41:49;;;;;;;9.17;4.67;;;;;;;;;;5115358;28;20026;-76
2022/12/12 07:44:15;;;;;;;8.73;5.57;;;;;;;;;;5115048;28;20027;-77
2022/12/12 07:46:41;;;;;;;6.67;3.80;;;;;;;;;;5115318;28;20468;-76
2022/12/12 07:49:06;;;;;;;9.33;4.83;;;;;;;;;;5115647;28;20047;-76
2022/12/12 07:51:32;;;;;;;11.03;6.43;;;;;;;;;;5116732;28;20081;-75
2022/12/12 07:53:57;;;;;;;8.23;4.93;;;;;;;;;;5115579;28;20015;-75
2022/12/12 07:56:23;;;;;;;8.17;4.73;;;;;;;;;;5117329;28;20053;-75
2022/12/12 07:58:48;;;;;;;9.80;3.87;;;;;;;;;;5117411;28;20028;-75
2022/12/12 08:01:17;;;;;;;6.13;4.03;;;;;;;;;;5115792;28;20080;-78
2022/12/12 08:03:43;;;;;;;9.60;3.83;;;;;;;;;;5116611;28;20124;-79
2022/12/12 08:06:09;;;;;;;6.80;3.63;;;;;;;;;;5115925;28;20087;-76
2022/12/12 08:08:34;;;;;;;12.30;4.60;;;;;;;;;;5116406;28;20426;-77
2022/12/12 08:11:03;;;;;;;6.13;3.00;;;;;;;;;;5114651;28;20020;-75
2022/12/12 08:13:29;;;;;;;10.03;4.67;;;;;;;;;;5114906;28;20016;-77
2022/12/12 08:15:54;;;;;;;9.37;3.83;;;;;;;;;;5115393;28;20047;-76
2022/12/12 08:18:19;;;;;;;10.40;3.90;;;;;;;;;;5116131;28;20066;-79
2022/12/12 08:20:45;;;;;;;6.40;3.73;;;;;;;;;;5117814;28;20011;-78
2022/12/12 08:23:10;;;;;;;9.43;4.47;;;;;;;;;;5116075;28;20016;-76
2022/12/12 08:25:36;;;;;;;7.87;3.90;;;;;;;;;;5117004;28;20091;-77
2022/12/12 08:28:01;;;;;;;6.30;3.57;;;;;;;;;;5116712;28;20102;-77
2022/12/12 08:30:27;;;;;;;8.80;4.10;;;;;;;;;;5114975;28;20063;-78
2022/12/12 08:32:54;;;;;;;7.27;3.43;;;;;;;;;;5115842;28;20015;-77
2022/12/12 08:35:20;;;;;;;5.90;3.20;;;;;;;;;;5115343;28;20015;-77
2022/12/12 08:37:45;;;;;;;10.67;5.13;;;;;;;;;;5114555;28;20027;-79
2022/12/12 08:40:11;;;;;;;6.80;3.90;;;;;;;;;;5113499;28;20035;-78
2022/12/12 08:42:36;;;;;;;8.63;3.80;;;;;;;;;;5114601;28;20456;-76
2022/12/12 08:45:02;;;;;;;6.23;4.00;;;;;;;;;;5115148;28;20016;-79
2022/12/12 08:47:28;;;;;;;6.83;4.13;;;;;;;;;;5118203;28;20016;-77
2022/12/12 08:49:53;;;;;;;7.57;3.70;;;;;;;;;;5115254;28;20037;-78
2022/12/12 08:52:19;;;;;;;9.63;3.80;;;;;;;;;;5116661;28;20434;-77
2022/12/12 08:54:44;;;;;;;9.03;4.27;;;;;;;;;;5116622;27;20054;-77
2022/12/12 08:57:11;;;;;;;8.40;3.93;;;;;;;;;;5115200;28;20020;-78
2022/12/12 08:59:37;;;;;;;6.80;4.50;;;;;;;;;;5116107;28;20070;-77
2022/12/12 09:02:03;;;;;;;5.93;3.23;;;;;;;;;;5114536;28;20076;-77
2022/12/12 09:04:29;;;;;;;7.77;4.40;;;;;;;;;;5113941;28;20420;-75
2022/12/12 09:06:55;;;;;;;4.70;2.20;;;;;;;;;;5113430;28;20012;-77
2022/12/12 09:09:21;;;;;;;6.37;3.20;;;;;;;;;;5114265;28;20114;-79
2022/12/12 09:11:46;;;;;;;7.10;3.30;;;;;;;;;;5115059;28;20102;-76
2022/12/12 09:14:13;;;;;;;9.10;3.67;;;;;;;;;;5114922;28;20080;-78
2022/12/12 09:16:38;;;;;;;7.63;3.37;;;;;;;;;;5113610;28;20410;-77
2022/12/12 09:19:06;;;;;;;7.17;3.60;;;;;;;;;;5115449;27;20027;-79
2022/12/12 09:21:31;;;;;;;7.63;3.90;;;;;;;;;;5113763;28;20020;-79
2022/12/12 09:23:58;;;;;;;8.13;3.67;;;;;;;;;;5113169;28;20027;-78
2022/12/12 09:26:25;;;;;;;7.50;3.80;;;;;;;;;;5113553;28;20051;-78
2022/12/12 09:28:53;;;;;;;6.27;3.40;;;;;;;;;;5113296;28;20080;-76
2022/12/12 09:31:19;;;;;;;6.27;2.90;;;;;;;;;;5113631;28;20088;-76
2022/12/12 09:33:44;;;;;;;3.97;2.87;;;;;;;;;;5113570;28;20114;-77
2022/12/12 09:36:11;;;;;;;6.83;3.87;;;;;;;;;;5112530;28;20016;-78
2022/12/12 09:38:37;;;;;;;7.23;3.53;;;;;;;;;;5113224;28;20506;-77
2022/12/12 09:41:03;;;;;;;7.30;2.90;;;;;;;;;;5112990;28;20015;-78
2022/12/12 09:43:31;;;;;;;4.80;3.10;;;;;;;;;;5112720;28;20019;-77
2022/12/12 09:45:57;;;;;;;9.33;4.40;;;;;;;;;;5112938;28;20399;-77
2022/12/12 09:48:44;;;;;;;4.53;2.67;;;;;;;;;;5114708;28;20019;-75
2022/12/12 09:51:11;;;;;;;4.40;2.67;;;;;;;;;;5112475;28;20045;-75
2022/12/12 09:53:37;;;;;;;6.50;3.00;;;;;;;;;;5114127;28;20016;-79
2022/12/12 09:56:03;;;;;;;6.97;3.90;;;;;;;;;;5113045;28;20022;-77
2022/12/12 09:58:41;;;;;;;4.60;2.50;;;;;;;;;;5112233;28;20107;-76
2022/12/12 10:01:15;;;;;;;5.90;1.90;;;;;;;;;;5112244;28;20019;-78
2022/12/12 10:03:40;;;;;;;9.70;3.77;;;;;;;;;;5113633;28;20023;-78
2022/12/12 10:06:12;;;;;;;8.33;4.63;;;;;;;;;;5112398;28;20466;-77
2022/12/12 10:08:55;;;;;;;5.97;3.90;;;;;;;;;;5113854;28;20033;-78
2022/12/12 10:14:11;;;;;;;6.93;4.07;;;;;;;;;;5114054;28;20031;-78
2022/12/12 10:16:38;;;;;;;6.57;3.20;;;;;;;;;;5113912;28;20058;-77
2022/12/12 10:19:09;;;;;;;5.83;3.50;;;;;;;;;;5112812;28;20081;-78
2022/12/12 10:21:39;;;;;;;7.80;3.33;;;;;;;;;;5112216;28;20475;-77
2022/12/12 10:24:23;;;;;;;6.03;3.73;;;;;;;;;;5114836;28;20024;-77
2022/12/12 10:26:49;;;;;;;6.17;3.63;;;;;;;;;;5113704;28;20030;-78
2022/12/12 10:29:18;;;;;;;5.23;3.27;;;;;;;;;;5119540;28;20020;-77
2022/12/12 10:31:46;;;;;;;5.87;3.43;;;;;;;;;;5118846;28;20050;-77
2022/12/12 10:34:24;;;;;;;5.37;3.30;;;;;;;;;;5118892;28;20064;-78
2022/12/12 10:36:50;;;;;;;5.37;3.67;;;;;;;;;;5118939;28;20026;-78
2022/12/12 10:39:16;;;;;;;6.23;2.70;;;;;;;;;;5118583;28;20145;-77
2022/12/12 10:41:59;;;;;;;6.50;3.20;;;;;;;;;;5118088;28;20360;-77
2022/12/12 10:44:46;;;;;;;5.20;2.90;;;;;;;;;;5118988;28;20020;-77
2022/12/12 10:47:11;;;;;;;6.93;3.07;;;;;;;;;;5097007;28;20035;-80
2022/12/12 10:49:37;;;;;;;6.93;4.27;;;;;;;;;;5120474;28;20068;-78
2022/12/12 10:52:22;;;;;;;6.73;3.27;;;;;;;;;;5119717;28;20023;-79
2022/12/12 10:54:53;;;;;;;9.77;3.43;;;;;;;;;;5118916;28;20020;-76
2022/12/12 10:57:26;;;;;;;5.70;3.40;;;;;;;;;;5117906;28;20023;-76
2022/12/12 10:59:52;;;;;;;4.73;3.33;;;;;;;;;;5117609;28;20372;-77
2022/12/12 11:02:22;;;;;;;5.33;3.07;;;;;;;;;;5118565;28;20029;-75
2022/12/12 11:04:47;;;;;;;6.63;4.30;;;;;;;;;;5117873;28;20016;-76
2022/12/12 11:07:19;;;;;;;5.20;3.10;;;;;;;;;;5118415;28;20359;-77
2022/12/12 11:09:45;;;;;;;4.23;1.30;;;;;;;;;;5117892;28;20050;-78
2022/12/12 11:12:13;;;;;;;6.70;3.60;;;;;;;;;;5117448;28;20479;-76
2022/12/12 11:14:40;;;;;;;6.37;3.47;;;;;;;;;;5117756;28;20501;-75
2022/12/12 11:17:25;;;;;;;4.53;3.07;;;;;;;;;;5117257;28;20015;-76
2022/12/12 11:19:52;;;;;;;5.25;2.67;;;;;;;;;;5116835;28;20563;-76
2022/12/12 11:22:18;;;;;;;5.80;3.60;;;;;;;;;;5119722;27;20019;-77
2022/12/12 11:24:45;;;;;;;5.73;3.50;;;;;;;;;;5118124;28;20114;-76
2022/12/12 11:27:17;;;;;;;4.50;2.83;;;;;;;;;;5118073;28;20030;-76
2022/12/12 11:29:48;;;;;;;6.80;3.97;;;;;;;;;;5119583;28;20047;-76
2022/12/12 11:32:17;;;;;;;5.37;3.17;;;;;;;;;;5119148;27;20055;-76
2022/12/12 11:34:54;;;;;;;6.17;3.00;;;;;;;;;;5119961;28;20011;-75
2022/12/12 11:37:22;;;;;;;4.10;2.70;;;;;;;;;;5118579;28;20023;-75
2022/12/12 11:39:49;;;;;;;5.30;3.07;;;;;;;;;;5115509;28;20034;-76
2022/12/12 11:42:14;;;;;;;4.83;3.27;;;;;;;;;;5114065;28;20015;-76
2022/12/12 11:44:42;;;;;;;7.00;4.27;;;;;;;;;;5114814;28;20031;-79
2022/12/12 11:47:26;;;;;;;4.63;2.40;;;;;;;;;;5114748;28;20034;-79
2022/12/12 11:49:59;;;;;;;6.77;3.80;;;;;;;;;;5114896;28;20043;-75
2022/12/12 11:52:31;;;;;;;8.13;3.53;;;;;;;;;;5114246;28;20416;-75
2022/12/12 11:54:57;;;;;;;5.47;3.83;;;;;;;;;;5117238;28;20502;-79
2022/12/12 11:57:38;;;;;;;8.27;4.30;;;;;;;;;;5114588;28;20023;-77
2022/12/12 12:00:30;;;;;;;3.97;2.60;;;;;;;;;;5114360;28;20031;-75
2022/12/12 12:03:15;;;;;;;4.97;3.17;;;;;;;;;;5112167;28;20038;-76
2022/12/12 12:06:00;;;;;;;5.67;3.50;;;;;;;;;;5114679;28;20023;-75
2022/12/12 12:08:44;;;;;;;5.45;3.70;;;;;;;;;;5114734;28;20023;-76
2022/12/12 12:11:20;;;;;;;6.07;3.47;;;;;;;;;;5114322;28;20038;-77
2022/12/12 12:14:05;;;;;;;7.13;3.17;;;;;;;;;;5114622;28;20027;-76
2022/12/12 12:16:45;;;;;;;8.40;3.42;;;;;;;;;;5114213;28;20035;-76
2022/12/12 12:19:16;;;;;;;4.50;2.97;;;;;;;;;;5113545;28;20038;-74
2022/12/12 12:21:45;;;;;;;7.87;3.73;;;;;;;;;;5113568;28;20028;-76
2022/12/12 12:24:32;;;;;;;5.73;3.50;;;;;;;;;;5115474;28;20065;-76
2022/12/12 12:27:07;;;;;;;4.17;2.60;;;;;;;;;;5115291;28;20084;-76
2022/12/12 12:29:32;;;;;;;4.90;3.20;;;;;;;;;;5114084;28;20024;-76
2022/12/12 12:32:03;;;;;;;5.67;3.60;;;;;;;;;;5113409;28;20081;-77
2022/12/12 12:34:38;;;;;;;9.10;4.70;;;;;;;;;;5113958;28;20026;-76
2022/12/12 12:37:14;;;;;;;4.93;2.88;;;;;;;;;;5113912;28;20139;-76
2022/12/12 12:39:55;;;;;;;7.93;3.30;;;;;;;;;;5113415;28;20069;-76
2022/12/12 12:42:24;;;;;;;2.87;1.60;;;;;;;;;;5113644;28;20054;-76
2022/12/12 12:45:26;;;;;;;7.00;2.57;;;;;;;;;;5113957;28;20023;-77
2022/12/12 12:47:56;;;;;;;5.07;3.27;;;;;;;;;;5075170;28;20028;-76
2022/12/12 12:50:42;;;;;;;3.23;2.40;;;;;;;;;;5109457;28;20024;-75
2022/12/12 12:53:08;;;;;;;5.97;3.83;;;;;;;;;;5114753;28;20039;-76
2022/12/12 12:55:37;;;;;;;7.73;2.97;;;;;;;;;;5113775;28;20015;-76
2022/12/12 12:58:03;;;;;;;5.73;3.13;;;;;;;;;;5116129;28;20028;-76
2022/12/12 13:00:30;;;;;;;7.00;2.30;;;;;;;;;;5117423;28;20034;-77
2022/12/12 13:03:01;;;;;;;5.30;2.90;;;;;;;;;;5116522;28;20420;-74
2022/12/12 13:05:34;;;;;;;5.10;2.93;;;;;;;;;;5116694;28;20023;-76
2022/12/12 13:08:18;;;;;;;7.43;3.50;;;;;;;;;;5116170;28;20073;-75
2022/12/12 13:10:49;;;;;;;3.57;1.80;;;;;;;;;;5115223;28;20011;-75
2022/12/12 13:13:23;;;;;;;5.17;2.40;;;;;;;;;;5114004;28;20022;-73
2022/12/12 13:15:53;;;;;;;4.13;2.38;;;;;;;;;;5114901;28;20018;-77
2022/12/12 13:18:24;;;;;;;3.93;2.17;;;;;;;;;;5113174;28;20039;-76
2022/12/12 13:21:08;;;;;;;3.73;1.97;;;;;;;;;;5114408;28;20502;-75
2022/12/12 13:23:51;;;;;;;2.80;1.50;;;;;;;;;;5114359;28;20024;-74
2022/12/12 13:26:17;;;;;;;3.07;2.57;;;;;;;;;;5115786;28;20022;-74
2022/12/12 13:28:46;;;;;;;4.17;2.17;;;;;;;;;;5115385;28;20019;-75
2022/12/12 13:31:23;;;;;;;4.77;2.63;;;;;;;;;;5114160;28;20075;-75
2022/12/12 13:33:56;;;;;;;6.13;2.83;;;;;;;;;;5114110;28;20540;-76
2022/12/12 13:36:24;;;;;;;4.80;2.47;;;;;;;;;;5112651;28;20028;-76
2022/12/12 13:38:50;;;;;;;4.77;2.77;;;;;;;;;;5113772;28;20057;-75
2022/12/12 13:41:17;;;;;;;3.27;1.97;;;;;;;;;;5112549;28;20027;-74
2022/12/12 13:43:45;;;;;;;3.97;1.87;;;;;;;;;;5112108;28;20021;-75
2022/12/12 13:46:34;;;;;;;5.77;2.60;;;;;;;;;;5113855;28;20028;-74
2022/12/12 13:49:05;;;;;;;6.00;2.63;;;;;;;;;;5106573;28;20032;-75
2022/12/12 13:51:33;;;;;;;3.77;2.30;;;;;;;;;;5111805;28;20340;-75
2022/12/12 13:54:08;;;;;;;2.90;2.03;;;;;;;;;;5112517;28;20043;-75
2022/12/12 13:56:36;;;;;;;5.82;2.50;;;;;;;;;;5112337;28;20015;-75
2022/12/12 13:59:01;;;;;;;3.90;2.13;;;;;;;;;;5112461;28;20040;-75
2022/12/12 14:01:32;;;;;;;4.37;2.23;;;;;;;;;;5111572;28;20492;-75
2022/12/12 14:03:58;;;;;;;4.77;2.33;;;;;;;;;;5112103;28;20501;-74
2022/12/12 14:06:26;;;;;;;4.50;2.83;;;;;;;;;;5112885;28;20016;-74
2022/12/12 14:08:52;;;;;;;4.83;2.00;;;;;;;;;;5112030;28;20024;-74
2022/12/12 14:11:38;;;;;;;3.80;1.93;;;;;;;;;;5113364;28;20025;-75
2022/12/12 14:14:06;;;;;;;4.50;1.97;;;;;;;;;;5111251;28;20127;-75
2022/12/12 14:16:32;;;;;;;3.17;1.80;;;;;;;;;;5111557;28;20051;-74
2022/12/12 14:19:05;;;;;;;3.87;2.23;;;;;;;;;;5111524;28;20537;-75
2022/12/12 14:21:42;;;;;;;4.17;1.77;;;;;;;;;;5111954;28;20138;-77
2022/12/12 14:24:28;;;;;;;5.40;2.10;;;;;;;;;;5112552;28;20102;-73
2022/12/12 14:26:53;;;;;;;3.23;1.63;;;;;;;;;;5108629;28;20023;-74
2022/12/12 14:29:21;;;;;;;4.53;2.10;;;;;;;;;;5111932;28;20456;-75
2022/12/12 14:32:06;;;;;;;3.70;2.03;;;;;;;;;;5112786;28;20052;-74
2022/12/12 14:34:47;;;;;;;2.97;1.70;;;;;;;;;;5111716;28;20015;-74
2022/12/12 14:37:22;;;;;;;5.33;2.17;;;;;;;;;;5111879;28;20028;-73
2022/12/12 14:39:53;;;;;;;3.10;1.67;;;;;;;;;;5112987;28;20028;-74
2022/12/12 14:42:39;;;;;;;5.37;2.87;;;;;;;;;;5111558;28;20031;-74
2022/12/12 14:45:24;;;;;;;3.67;2.10;;;;;;;;;;5103573;28;20020;-73
2022/12/12 14:47:50;;;;;;;;;;;;;;;;;;5108475;28;20129;-72
2022/12/12 14:50:16;;;;;;;3.30;1.10;;;;;;;;;;5110974;28;20352;-72
2022/12/12 14:52:41;;;;;;;3.53;1.43;;;;;;;;;;5112848;28;20464;-74
2022/12/12 14:55:13;;;;;;;5.03;2.60;;;;;;;;;;5113419;28;20104;-74
2022/12/12 14:57:39;;;;;;;2.93;1.93;;;;;;;;;;5113096;28;20539;-74
2022/12/12 15:00:18;;;;;;;5.47;2.03;;;;;;;;;;5111915;28;20627;-75
2022/12/12 15:02:46;;;;;;;4.37;2.47;;;;;;;;;;5112495;28;20107;-74
2022/12/12 15:05:13;;;;;;;4.33;2.00;;;;;;;;;;5111523;28;20024;-73
2022/12/12 15:07:38;;;;;;;4.33;1.60;;;;;;;;;;5112004;28;20023;-74
2022/12/12 15:10:25;;;;;;;3.40;1.40;;;;;;;;;;5112241;28;20053;-74
2022/12/12 15:12:51;;;;;;;5.23;1.90;;;;;;;;;;5111618;28;20028;-73
2022/12/12 15:15:23;;;;;;;4.83;2.70;;;;;;;;;;5116525;28;20133;-73